Time;durP1;ratioP1;P1;durP2;ratioP2;P2;SDS_P1;SDS_P2;PMS_P1;PMS_P2;Temp;Humidity;BMP_temperature;BMP_pressure;BME280_temperature;BME280_humidity;BME280_pressure;Samples;Min_cycle;Max_cycle;Signal;HPM_P1;HPM_P2
2022/06/24 00:00:44;;;;;;;4.72;3.35;;;20.60;99.90;;;;;;5014338;28;20053;-79
2022/06/24 00:03:20;;;;;;;5.90;3.38;;;20.50;99.90;;;;;;5013163;28;20042;-79
2022/06/24 00:05:49;;;;;;;7.50;3.45;;;20.50;99.90;;;;;;5012878;28;20057;-79
2022/06/24 00:08:15;;;;;;;4.35;3.58;;;20.40;99.90;;;;;;5013046;28;20033;-79
2022/06/24 00:10:43;;;;;;;5.47;3.35;;;20.30;99.90;;;;;;5012680;28;20042;-79
2022/06/24 00:13:08;;;;;;;7.32;4.03;;;20.20;99.90;;;;;;5012313;28;20049;-79
2022/06/24 00:15:36;;;;;;;5.07;3.42;;;20.20;99.90;;;;;;5012346;28;20053;-79
2022/06/24 00:18:13;;;;;;;5.25;3.72;;;20.10;99.90;;;;;;4995572;28;20045;-79
2022/06/24 00:20:49;;;;;;;7.47;3.53;;;20.10;99.90;;;;;;5012501;28;20045;-79
2022/06/24 00:23:19;;;;;;;3.83;3.05;;;20.00;99.90;;;;;;5012577;28;20210;-79
2022/06/24 00:25:46;;;;;;;4.88;3.42;;;20.00;99.90;;;;;;5011517;28;20077;-78
2022/06/24 00:28:13;;;;;;;7.63;4.22;;;19.90;99.90;;;;;;5011927;28;20117;-80
2022/06/24 00:30:49;;;;;;;5.70;3.88;;;19.90;99.90;;;;;;5012111;28;20061;-79
2022/06/24 00:33:17;;;;;;;5.43;3.70;;;19.80;99.90;;;;;;5011853;28;20044;-79
2022/06/24 00:35:45;;;;;;;5.43;3.78;;;19.70;99.90;;;;;;5012550;28;20080;-79
2022/06/24 00:38:26;;;;;;;6.13;4.03;;;19.60;99.90;;;;;;5012273;28;20045;-80
2022/06/24 00:41:04;;;;;;;7.55;4.20;;;19.60;99.90;;;;;;5011636;28;20046;-79
2022/06/24 00:43:35;;;;;;;5.50;4.20;;;19.50;99.90;;;;;;5011927;28;20041;-79
2022/06/24 00:46:24;;;;;;;6.13;4.20;;;19.40;99.90;;;;;;5011476;28;20053;-80
2022/06/24 00:48:55;;;;;;;4.47;3.90;;;19.40;99.90;;;;;;5012387;28;20197;-78
2022/06/24 00:51:22;;;;;;;4.75;3.90;;;19.40;99.90;;;;;;5011896;28;20512;-80
2022/06/24 00:53:55;;;;;;;6.70;4.15;;;19.30;99.90;;;;;;5011784;28;20044;-79
2022/06/24 00:56:25;;;;;;;3.85;3.40;;;19.30;99.90;;;;;;5014180;28;20045;-79
2022/06/24 00:58:55;;;;;;;4.53;4.07;;;19.20;99.90;;;;;;5015847;28;20044;-77
2022/06/24 01:01:29;;;;;;;6.47;4.63;;;19.10;99.90;;;;;;5014797;28;20108;-79
2022/06/24 01:03:59;;;;;;;6.60;3.90;;;19.10;99.90;;;;;;5015778;28;20070;-79
2022/06/24 01:06:29;;;;;;;6.55;3.65;;;19.00;99.90;;;;;;5015142;28;20057;-78
2022/06/24 01:08:55;;;;;;;5.25;3.55;;;19.00;99.90;;;;;;5016955;28;20069;-78
2022/06/24 01:11:24;;;;;;;5.40;3.95;;;19.00;99.90;;;;;;5015221;28;20478;-79
2022/06/24 01:13:51;;;;;;;10.00;3.90;;;19.00;99.90;;;;;;5015736;28;20045;-80
2022/06/24 01:16:19;;;;;;;4.53;4.13;;;19.00;99.90;;;;;;5015581;28;20050;-79
2022/06/24 01:18:44;;;;;;;4.45;3.53;;;18.90;99.90;;;;;;5015599;28;20128;-79
2022/06/24 01:21:28;;;;;;;6.70;3.95;;;18.80;99.90;;;;;;5015058;28;20461;-79
2022/06/24 01:24:22;;;;;;;6.35;4.10;;;18.80;99.90;;;;;;5015032;28;20498;-79
2022/06/24 01:26:50;;;;;;;5.80;4.28;;;18.70;99.90;;;;;;5014593;28;20053;-79
2022/06/24 01:29:17;;;;;;;4.72;3.80;;;18.70;99.90;;;;;;5015688;28;20524;-79
2022/06/24 01:31:45;;;;;;;8.65;3.90;;;18.70;99.90;;;;;;5015338;28;20044;-79
2022/06/24 01:34:10;;;;;;;5.47;3.78;;;18.70;99.90;;;;;;5015284;28;20108;-79
2022/06/24 01:36:36;;;;;;;5.40;3.75;;;18.70;99.90;;;;;;5015108;28;20042;-79
2022/06/24 01:39:04;;;;;;;6.65;3.70;;;18.70;99.90;;;;;;5017453;28;20042;-79
2022/06/24 01:41:30;;;;;;;4.90;4.00;;;18.70;99.90;;;;;;5016158;28;20053;-79
2022/06/24 01:43:55;;;;;;;5.45;3.60;;;18.70;99.90;;;;;;5015263;28;20041;-78
2022/06/24 01:46:21;;;;;;;3.88;3.58;;;18.60;99.90;;;;;;5015541;28;20053;-79
2022/06/24 01:48:46;;;;;;;3.97;3.55;;;18.70;99.90;;;;;;5014556;28;20503;-79
2022/06/24 01:51:14;;;;;;;5.03;3.60;;;18.70;99.90;;;;;;5014638;28;20042;-79
2022/06/24 01:53:40;;;;;;;4.45;3.78;;;18.70;99.90;;;;;;4998695;28;20069;-77
2022/06/24 01:56:06;;;;;;;4.07;3.42;;;18.70;99.90;;;;;;5015908;28;20136;-79
2022/06/24 01:58:31;;;;;;;7.13;4.20;;;18.80;99.90;;;;;;5015478;28;20063;-80
2022/06/24 02:00:57;;;;;;;5.10;3.75;;;18.80;99.90;;;;;;5015612;28;20030;-79
2022/06/24 02:03:23;;;;;;;5.47;4.10;;;18.90;99.90;;;;;;5015649;28;20041;-79
2022/06/24 02:05:49;;;;;;;5.35;3.80;;;18.90;99.90;;;;;;5015149;28;20121;-79
2022/06/24 02:08:14;;;;;;;5.18;3.80;;;18.90;99.90;;;;;;5014918;28;20176;-79
2022/06/24 02:13:28;;;;;;;4.45;4.00;;;19.10;99.90;;;;;;5014981;28;20060;-80
2022/06/24 02:15:58;;;;;;;5.88;3.88;;;19.10;99.90;;;;;;4998216;28;20048;-80
2022/06/24 02:18:26;;;;;;;4.05;3.63;;;19.20;99.90;;;;;;5016374;28;20037;-79
2022/06/24 02:20:51;;;;;;;4.07;3.50;;;19.20;99.90;;;;;;5014767;28;20038;-79
2022/06/24 02:23:20;;;;;;;4.22;3.13;;;19.20;99.90;;;;;;5014385;28;20065;-78
2022/06/24 02:25:48;;;;;;;4.63;3.25;;;19.20;99.90;;;;;;5001573;28;20085;-78
2022/06/24 02:28:14;;;;;;;3.53;3.20;;;19.20;99.90;;;;;;5016342;28;20501;-79
2022/06/24 02:30:40;;;;;;;4.25;2.83;;;19.20;99.90;;;;;;5014305;28;20053;-79
2022/06/24 02:33:07;;;;;;;5.18;3.58;;;19.30;99.90;;;;;;5013555;28;20033;-80
2022/06/24 02:35:33;;;;;;;3.45;3.13;;;19.20;99.90;;;;;;5013264;28;20038;-80
2022/06/24 02:37:59;;;;;;;8.43;3.72;;;19.30;99.90;;;;;;5014054;28;20121;-79
2022/06/24 02:43:29;;;;;;;6.00;3.30;;;19.30;99.90;;;;;;5014320;28;20116;-79
2022/06/24 02:46:03;;;;;;;8.50;3.70;;;19.20;99.90;;;;;;5014243;28;20099;-80
2022/06/24 02:48:30;;;;;;;3.63;2.90;;;19.20;99.90;;;;;;5014270;28;20073;-80
2022/06/24 02:50:58;;;;;;;5.75;3.28;;;19.20;99.90;;;;;;5016752;28;20064;-79
2022/06/24 02:53:24;;;;;;;5.05;3.40;;;19.20;99.90;;;;;;5030933;28;20042;-77
2022/06/24 02:55:53;;;;;;;5.15;3.72;;;19.30;99.90;;;;;;5033046;28;20048;-78
2022/06/24 02:58:19;;;;;;;4.25;2.90;;;19.40;99.90;;;;;;5021753;28;20052;-79
2022/06/24 03:00:44;;;;;;;4.43;3.33;;;19.40;99.90;;;;;;5011768;28;20038;-80
2022/06/24 03:03:12;;;;;;;3.53;3.22;;;19.40;99.90;;;;;;4995612;28;20440;-79
2022/06/24 03:05:38;;;;;;;5.80;3.10;;;19.50;99.90;;;;;;5013249;28;20050;-79
2022/06/24 03:08:04;;;;;;;5.78;3.88;;;19.50;99.90;;;;;;5015179;28;20138;-78
2022/06/24 03:10:30;;;;;;;3.67;2.83;;;19.50;99.90;;;;;;5012858;28;20046;-80
2022/06/24 03:12:56;;;;;;;4.22;3.33;;;19.50;99.90;;;;;;5011803;28;20176;-79
2022/06/24 03:15:21;;;;;;;5.28;3.67;;;19.50;99.90;;;;;;5012795;28;20034;-78
2022/06/24 03:17:47;;;;;;;3.67;3.38;;;19.50;99.90;;;;;;5011948;28;20382;-78
2022/06/24 03:20:13;;;;;;;4.65;3.30;;;19.40;99.90;;;;;;5010311;28;20060;-78
2022/06/24 03:22:39;;;;;;;4.70;3.58;;;19.40;99.90;;;;;;5011791;28;20185;-78
2022/06/24 03:25:06;;;;;;;5.18;3.53;;;19.40;99.90;;;;;;5011071;28;20521;-78
2022/06/24 03:27:32;;;;;;;3.75;3.45;;;19.40;99.90;;;;;;5011343;28;20037;-77
2022/06/24 03:29:58;;;;;;;4.68;3.03;;;19.40;99.90;;;;;;5011514;28;20053;-77
2022/06/24 03:32:23;;;;;;;3.95;3.28;;;19.30;99.90;;;;;;5011281;28;20038;-78
2022/06/24 03:34:49;;;;;;;7.93;4.40;;;19.50;99.90;;;;;;5011194;28;20388;-78
2022/06/24 03:37:15;;;;;;;7.13;3.85;;;19.50;99.90;;;;;;5011150;28;20049;-79
2022/06/24 03:39:40;;;;;;;5.78;4.40;;;19.60;99.90;;;;;;5010627;28;20129;-78
2022/06/24 03:42:06;;;;;;;5.03;4.50;;;19.70;99.90;;;;;;4995016;28;20037;-78
2022/06/24 03:44:32;;;;;;;5.75;4.50;;;19.70;99.90;;;;;;5011185;28;20053;-78
2022/06/24 03:46:57;;;;;;;9.43;5.47;;;19.70;99.90;;;;;;5010941;28;20052;-78
2022/06/24 03:49:23;;;;;;;8.80;5.38;;;19.60;99.90;;;;;;5012350;28;20065;-79
2022/06/24 03:51:49;;;;;;;5.20;4.70;;;19.60;99.90;;;;;;5010526;28;20034;-78
2022/06/24 03:54:15;;;;;;;10.68;5.13;;;19.60;99.90;;;;;;5010754;28;20048;-77
2022/06/24 03:56:41;;;;;;;10.75;6.60;;;19.50;99.90;;;;;;5010862;28;20057;-78
2022/06/24 03:59:07;;;;;;;9.05;6.43;;;19.50;99.90;;;;;;5010899;28;20045;-78
2022/06/24 04:01:32;;;;;;;8.75;6.32;;;19.50;99.90;;;;;;5010524;28;20085;-78
2022/06/24 04:03:58;;;;;;;11.05;7.78;;;19.50;99.90;;;;;;5011985;28;20029;-78
2022/06/24 04:06:23;;;;;;;10.68;8.05;;;19.50;99.90;;;;;;5010686;28;20037;-79
2022/06/24 04:08:49;;;;;;;15.05;10.15;;;19.50;99.90;;;;;;5011991;28;20077;-78
2022/06/24 04:11:16;;;;;;;15.35;10.45;;;19.60;99.90;;;;;;5010704;28;20033;-78
2022/06/24 04:13:43;;;;;;;21.63;11.73;;;19.70;99.90;;;;;;4994229;28;20050;-79
2022/06/24 04:16:09;;;;;;;12.65;9.18;;;19.90;99.90;;;;;;5010360;28;20489;-77
2022/06/24 04:18:35;;;;;;;12.55;7.00;;;19.90;99.90;;;;;;5010209;28;20168;-78
2022/06/24 04:21:01;;;;;;;7.63;5.90;;;20.00;99.90;;;;;;5009964;28;20432;-78
2022/06/24 04:23:27;;;;;;;7.68;4.63;;;20.10;99.90;;;;;;5010585;28;20046;-78
2022/06/24 04:25:53;;;;;;;10.55;5.20;;;20.30;99.90;;;;;;5010285;28;20535;-78
2022/06/24 04:28:19;;;;;;;7.40;4.70;;;20.30;99.90;;;;;;5010268;28;20038;-78
2022/06/24 04:30:45;;;;;;;12.40;4.65;;;20.40;99.90;;;;;;5009709;28;20042;-78
2022/06/24 04:33:11;;;;;;;5.05;3.80;;;20.40;99.90;;;;;;5010237;28;20043;-80
2022/06/24 04:35:37;;;;;;;5.57;4.10;;;20.50;99.90;;;;;;5010003;28;20040;-79
2022/06/24 04:38:02;;;;;;;6.80;4.35;;;20.50;99.90;;;;;;5010407;28;20129;-78
2022/06/24 04:40:28;;;;;;;7.32;3.45;;;20.60;99.90;;;;;;5010122;28;20524;-79
2022/06/24 04:42:54;;;;;;;5.47;3.83;;;20.60;99.90;;;;;;5010294;28;20067;-80
2022/06/24 04:45:20;;;;;;;7.70;3.58;;;20.60;99.90;;;;;;5010087;28;20185;-79
2022/06/24 04:47:45;;;;;;;5.10;3.45;;;20.60;99.90;;;;;;5010145;28;20085;-79
2022/06/24 04:50:11;;;;;;;6.00;3.90;;;20.60;99.90;;;;;;5009663;28;20108;-78
2022/06/24 04:52:38;;;;;;;8.82;4.43;;;20.50;99.90;;;;;;5010105;28;20038;-80
2022/06/24 04:55:06;;;;;;;4.82;3.70;;;20.60;99.90;;;;;;5010346;28;20129;-78
2022/06/24 04:57:32;;;;;;;5.65;4.25;;;20.60;99.90;;;;;;5010953;28;20046;-81
2022/06/24 04:59:58;;;;;;;5.68;3.50;;;20.60;99.90;;;;;;5012132;28;20109;-82
2022/06/24 05:02:24;;;;;;;5.50;3.78;;;20.50;99.90;;;;;;4994577;28;20084;-81
2022/06/24 05:04:50;;;;;;;6.88;4.00;;;20.50;99.90;;;;;;5010819;28;20042;-81
2022/06/24 05:07:16;;;;;;;6.53;4.03;;;20.50;99.90;;;;;;5011674;28;20472;-82
2022/06/24 05:09:42;;;;;;;5.82;4.70;;;20.60;99.90;;;;;;5013533;28;20061;-81
2022/06/24 05:12:09;;;;;;;7.70;4.57;;;20.60;99.90;;;;;;5011698;28;20489;-80
2022/06/24 05:14:35;;;;;;;7.57;4.60;;;20.60;99.90;;;;;;5012736;28;20052;-81
2022/06/24 05:17:01;;;;;;;5.78;3.92;;;20.60;99.90;;;;;;5013203;28;20160;-80
2022/06/24 05:19:26;;;;;;;6.88;4.22;;;20.60;99.90;;;;;;4995623;28;20176;-80
2022/06/24 05:21:52;;;;;;;5.43;3.92;;;20.60;99.90;;;;;;5012625;28;20045;-80
2022/06/24 05:24:18;;;;;;;7.18;4.28;;;20.70;99.90;;;;;;4996066;28;20046;-79
2022/06/24 05:26:44;;;;;;;7.18;4.72;;;20.70;99.90;;;;;;5013000;28;20042;-80
2022/06/24 05:29:10;;;;;;;5.97;4.45;;;20.60;99.90;;;;;;4995781;28;20038;-79
2022/06/24 05:31:36;;;;;;;6.53;4.35;;;20.70;99.90;;;;;;5011388;28;20049;-80
2022/06/24 05:34:02;;;;;;;5.55;4.45;;;20.80;99.90;;;;;;5011329;28;20037;-78
2022/06/24 05:36:28;;;;;;;7.72;4.40;;;20.80;99.90;;;;;;5011649;28;20044;-81
2022/06/24 05:38:54;;;;;;;6.85;4.63;;;20.80;99.90;;;;;;4994717;28;20636;-80
2022/06/24 05:41:19;;;;;;;5.70;4.35;;;20.80;99.90;;;;;;5011160;28;20081;-81
2022/06/24 05:43:46;;;;;;;6.65;4.57;;;20.80;99.90;;;;;;5014230;28;20065;-81
2022/06/24 05:46:12;;;;;;;7.50;4.80;;;20.70;99.90;;;;;;5015276;28;20093;-81
2022/06/24 05:48:38;;;;;;;9.48;5.60;;;20.70;99.90;;;;;;4998976;28;20038;-81
2022/06/24 05:51:15;;;;;;;8.18;5.22;;;20.70;99.90;;;;;;5021157;28;20048;-81
2022/06/24 05:56:25;;;;;;;6.72;4.93;;;20.80;99.90;;;;;;5015815;28;20140;-81
2022/06/24 05:58:51;;;;;;;9.35;5.47;;;20.80;99.90;;;;;;5014209;28;20125;-80
2022/06/24 06:01:17;;;;;;;6.15;4.70;;;20.80;99.90;;;;;;5016969;28;20045;-81
2022/06/24 06:03:43;;;;;;;6.82;5.63;;;20.80;99.90;;;;;;5001236;28;20042;-80
2022/06/24 06:06:09;;;;;;;7.25;4.82;;;20.80;99.90;;;;;;5021958;28;20181;-80
2022/06/24 06:08:36;;;;;;;7.43;4.63;;;20.80;99.90;;;;;;5021736;28;20041;-81
2022/06/24 06:11:09;;;;;;;11.60;4.80;;;20.80;99.90;;;;;;5022144;28;20034;-81
2022/06/24 06:13:35;;;;;;;8.40;5.32;;;20.80;99.90;;;;;;5024589;28;20050;-81
2022/06/24 06:16:01;;;;;;;7.72;4.88;;;20.90;99.90;;;;;;5019296;28;20125;-81
2022/06/24 06:18:26;;;;;;;6.22;5.00;;;20.90;99.90;;;;;;5008128;28;20096;-80
2022/06/24 06:20:58;;;;;;;8.15;5.65;;;20.90;99.90;;;;;;5022382;28;20531;-82
2022/06/24 06:23:24;;;;;;;8.30;5.63;;;20.90;99.90;;;;;;5016487;28;20049;-81
2022/06/24 06:25:49;;;;;;;11.30;4.93;;;20.90;99.90;;;;;;5019697;28;20042;-82
2022/06/24 06:28:15;;;;;;;7.90;4.90;;;20.80;99.90;;;;;;5020753;28;20084;-82
2022/06/24 06:30:40;;;;;;;10.18;5.85;;;20.80;99.90;;;;;;5018694;28;20315;-82
2022/06/24 06:33:06;;;;;;;12.13;5.03;;;20.80;99.90;;;;;;5001776;28;20042;-82
2022/06/24 06:35:31;;;;;;;10.00;5.38;;;20.80;99.90;;;;;;5000769;28;20038;-82
2022/06/24 06:37:57;;;;;;;7.20;5.18;;;20.80;99.90;;;;;;5016665;28;20038;-83
2022/06/24 06:40:24;;;;;;;9.27;5.50;;;20.80;99.90;;;;;;5013000;28;20050;-81
2022/06/24 06:42:53;;;;;;;6.78;4.78;;;20.80;99.90;;;;;;5012998;28;20055;-83
2022/06/24 06:45:19;;;;;;;13.50;7.18;;;20.70;99.90;;;;;;5011995;28;20050;-83
2022/06/24 06:47:45;;;;;;;10.80;5.90;;;20.70;99.90;;;;;;5012170;28;20108;-83
2022/06/24 06:50:11;;;;;;;6.20;5.25;;;20.70;99.90;;;;;;5019554;28;20505;-83
2022/06/24 06:52:36;;;;;;;6.80;5.47;;;20.70;99.90;;;;;;5016927;28;20041;-82
2022/06/24 06:55:02;;;;;;;9.10;5.05;;;20.70;99.90;;;;;;5019317;28;20042;-82
2022/06/24 06:57:28;;;;;;;6.80;4.47;;;20.70;99.90;;;;;;5018182;28;20034;-82
2022/06/24 06:59:54;;;;;;;13.05;5.72;;;20.60;99.90;;;;;;5017658;28;20121;-83
2022/06/24 07:02:19;;;;;;;6.53;5.13;;;20.70;99.90;;;;;;5023072;28;20046;-83
2022/06/24 07:04:45;;;;;;;6.95;5.15;;;20.60;99.90;;;;;;5012045;28;20105;-83
2022/06/24 07:07:10;;;;;;;7.35;5.70;;;20.60;99.90;;;;;;5025495;28;20046;-82
2022/06/24 07:09:36;;;;;;;5.90;3.90;;;20.60;99.90;;;;;;5003339;28;20077;-83
2022/06/24 07:12:02;;;;;;;8.23;4.40;;;20.60;99.90;;;;;;5012464;28;20037;-83
2022/06/24 07:14:27;;;;;;;5.95;4.82;;;20.60;99.90;;;;;;5013208;28;20080;-83
2022/06/24 07:16:53;;;;;;;8.52;5.45;;;20.60;99.90;;;;;;5013297;28;20038;-83
2022/06/24 07:19:18;;;;;;;6.82;4.68;;;20.60;99.90;;;;;;5014764;28;20084;-83
2022/06/24 07:21:44;;;;;;;7.85;4.95;;;20.60;99.90;;;;;;4996283;28;20046;-83
2022/06/24 07:24:10;;;;;;;9.43;5.53;;;20.70;99.90;;;;;;5011904;28;20508;-83
2022/06/24 07:26:35;;;;;;;9.15;6.13;;;20.60;99.90;;;;;;5011612;28;20049;-82
2022/06/24 07:29:01;;;;;;;11.55;5.55;;;20.60;99.90;;;;;;5012516;28;20123;-83
2022/06/24 07:31:26;;;;;;;6.95;5.53;;;20.60;99.90;;;;;;4995688;28;20056;-82
2022/06/24 07:33:52;;;;;;;9.82;5.65;;;20.70;99.90;;;;;;5014423;28;20374;-82
2022/06/24 07:36:18;;;;;;;10.27;5.32;;;20.60;99.90;;;;;;5012747;28;20150;-82
2022/06/24 07:38:43;;;;;;;8.10;5.15;;;20.60;99.90;;;;;;5012672;28;20042;-82
2022/06/24 07:41:09;;;;;;;6.15;4.90;;;20.60;99.90;;;;;;4995918;28;20404;-82
2022/06/24 07:43:38;;;;;;;9.40;5.53;;;20.60;99.90;;;;;;5012401;28;20045;-82
2022/06/24 07:46:08;;;;;;;8.10;5.25;;;20.60;99.90;;;;;;5013789;28;20053;-82
2022/06/24 07:48:37;;;;;;;7.25;5.03;;;20.50;99.90;;;;;;5012562;28;20034;-82
2022/06/24 07:51:13;;;;;;;7.50;5.28;;;20.50;99.90;;;;;;4999711;28;20106;-83
2022/06/24 07:53:40;;;;;;;7.03;5.22;;;20.50;99.90;;;;;;4999910;28;20037;-82
2022/06/24 07:58:50;;;;;;;7.35;5.97;;;20.50;99.90;;;;;;4996796;28;20410;-82
2022/06/24 08:01:16;;;;;;;7.07;5.13;;;20.50;99.90;;;;;;5012589;28;20041;-82
2022/06/24 08:03:42;;;;;;;9.05;5.05;;;20.40;99.90;;;;;;5012857;28;20112;-82
2022/06/24 08:06:08;;;;;;;8.60;5.65;;;20.40;99.90;;;;;;5012776;28;20113;-82
2022/06/24 08:08:33;;;;;;;6.88;5.28;;;20.40;99.90;;;;;;5012975;28;20121;-82
2022/06/24 08:10:59;;;;;;;6.32;5.03;;;20.40;99.90;;;;;;5011918;28;20069;-81
2022/06/24 08:13:24;;;;;;;8.77;4.60;;;20.40;99.90;;;;;;5013119;28;20088;-82
2022/06/24 08:15:50;;;;;;;8.07;5.65;;;20.40;99.90;;;;;;5007686;28;20086;-83
2022/06/24 08:18:17;;;;;;;7.38;6.55;;;20.40;99.90;;;;;;5004538;28;20044;-83
2022/06/24 08:20:42;;;;;;;6.78;5.30;;;20.40;99.90;;;;;;5019931;28;20046;-82
2022/06/24 08:23:08;;;;;;;7.57;6.15;;;20.50;99.90;;;;;;5020039;28;20046;-82
2022/06/24 08:25:34;;;;;;;8.10;5.43;;;20.50;99.90;;;;;;4993198;28;20050;-82
2022/06/24 08:27:59;;;;;;;8.27;5.53;;;20.50;99.90;;;;;;5015262;28;20048;-82
2022/06/24 08:30:25;;;;;;;7.50;5.28;;;20.50;99.90;;;;;;5001188;28;20042;-82
2022/06/24 08:32:51;;;;;;;8.25;6.32;;;20.50;99.90;;;;;;5010257;28;20132;-83
2022/06/24 08:35:17;;;;;;;6.90;5.63;;;20.40;99.90;;;;;;5009976;28;20526;-82
2022/06/24 08:37:42;;;;;;;10.05;6.20;;;20.40;99.90;;;;;;5011632;28;20543;-82
2022/06/24 08:40:09;;;;;;;9.52;5.82;;;20.40;99.90;;;;;;5018177;28;20508;-83
2022/06/24 08:42:38;;;;;;;10.25;5.80;;;20.30;99.90;;;;;;4993884;28;20073;-81
2022/06/24 08:45:04;;;;;;;12.75;6.80;;;20.30;99.90;;;;;;4998940;28;20345;-81
2022/06/24 08:47:30;;;;;;;7.28;5.75;;;20.30;99.90;;;;;;5017159;28;20041;-81
2022/06/24 08:49:56;;;;;;;10.77;6.28;;;20.30;99.90;;;;;;5017791;28;20052;-82
2022/06/24 08:52:21;;;;;;;8.18;5.75;;;20.30;99.90;;;;;;5026150;28;20041;-81
2022/06/24 08:54:49;;;;;;;10.73;6.50;;;20.20;99.90;;;;;;5025328;28;20080;-81
2022/06/24 08:57:15;;;;;;;9.60;6.38;;;20.20;99.90;;;;;;5009386;28;20048;-80
2022/06/24 08:59:45;;;;;;;7.85;6.15;;;20.20;99.90;;;;;;5018989;28;20100;-80
2022/06/24 09:02:14;;;;;;;10.23;5.50;;;20.10;99.90;;;;;;5011369;28;20447;-78
2022/06/24 09:04:44;;;;;;;7.68;4.60;;;20.00;99.90;;;;;;5009926;28;20045;-78
2022/06/24 09:07:25;;;;;;;6.07;4.35;;;19.80;99.90;;;;;;5010125;28;20497;-78
2022/06/24 09:09:57;;;;;;;8.93;4.57;;;19.70;99.90;;;;;;4993250;28;20052;-79
2022/06/24 09:12:23;;;;;;;9.65;4.57;;;19.50;99.90;;;;;;5009889;28;20041;-77
2022/06/24 09:14:49;;;;;;;8.07;4.07;;;19.30;99.90;;;;;;5011058;28;20045;-79
2022/06/24 09:17:14;;;;;;;10.52;4.78;;;19.10;99.90;;;;;;5012706;28;20057;-78
2022/06/24 09:19:40;;;;;;;6.53;4.55;;;19.00;99.90;;;;;;5016678;28;20069;-79
2022/06/24 09:22:06;;;;;;;9.80;4.43;;;18.90;99.90;;;;;;4983550;28;20096;-79
2022/06/24 09:24:46;;;;;;;10.52;4.35;;;18.90;99.90;;;;;;4984350;28;20038;-79
2022/06/24 09:27:12;;;;;;;6.70;4.05;;;18.80;99.90;;;;;;5000175;28;20138;-79
2022/06/24 09:29:47;;;;;;;7.47;4.05;;;18.80;99.90;;;;;;5017323;28;20033;-79
2022/06/24 09:32:12;;;;;;;5.82;3.85;;;18.90;99.90;;;;;;5017914;28;20072;-79
2022/06/24 09:34:38;;;;;;;6.57;3.42;;;18.80;99.90;;;;;;4999857;28;20485;-80
2022/06/24 09:37:05;;;;;;;4.18;3.35;;;18.80;99.90;;;;;;5017468;28;20055;-79
2022/06/24 09:39:32;;;;;;;8.23;3.65;;;18.80;99.90;;;;;;5018190;28;20050;-77
2022/06/24 09:41:57;;;;;;;7.70;4.05;;;18.80;99.90;;;;;;5002068;28;20069;-80
2022/06/24 09:44:26;;;;;;;6.72;4.18;;;18.80;99.90;;;;;;5000738;28;20430;-80
2022/06/24 09:47:05;;;;;;;6.05;3.55;;;18.80;99.90;;;;;;5016020;28;20042;-79
2022/06/24 09:49:31;;;;;;;7.45;3.65;;;18.80;99.90;;;;;;5017877;28;20041;-79
2022/06/24 09:51:58;;;;;;;5.78;3.13;;;18.80;99.90;;;;;;5016776;28;20080;-80
2022/06/24 09:54:25;;;;;;;5.90;3.20;;;18.70;99.90;;;;;;5001971;28;20052;-79
2022/06/24 09:56:52;;;;;;;5.25;3.03;;;18.70;99.90;;;;;;5017744;28;20128;-80
2022/06/24 10:02:03;;;;;;;5.90;3.08;;;18.70;99.90;;;;;;5014843;28;20054;-79
2022/06/24 10:04:29;;;;;;;8.77;3.20;;;18.70;99.90;;;;;;4996163;28;20042;-79
2022/06/24 10:06:56;;;;;;;5.10;3.00;;;18.70;99.90;;;;;;5013262;28;20052;-78
2022/06/24 10:09:30;;;;;;;9.13;3.10;;;18.80;99.90;;;;;;5014174;28;20073;-79
2022/06/24 10:11:57;;;;;;;6.68;3.30;;;18.80;99.90;;;;;;5012304;28;20382;-78
2022/06/24 10:14:28;;;;;;;6.38;3.45;;;18.80;99.90;;;;;;4996484;28;20401;-78
2022/06/24 10:16:54;;;;;;;5.63;3.63;;;18.80;99.90;;;;;;5013817;28;20044;-79
2022/06/24 10:19:25;;;;;;;4.45;3.17;;;18.80;99.90;;;;;;5012150;28;20435;-79
2022/06/24 10:21:51;;;;;;;5.13;3.90;;;18.80;99.90;;;;;;5012075;28;20041;-79
2022/06/24 10:24:17;;;;;;;4.72;3.15;;;18.90;99.90;;;;;;5012084;28;20384;-80
2022/06/24 10:26:47;;;;;;;5.32;3.65;;;19.00;99.90;;;;;;4995842;28;20445;-79
2022/06/24 10:29:26;;;;;;;4.25;3.00;;;19.10;99.90;;;;;;5012514;28;20045;-79
2022/06/24 10:31:55;;;;;;;3.55;2.90;;;19.10;99.90;;;;;;5011829;28;20049;-79
2022/06/24 10:34:28;;;;;;;6.57;3.47;;;19.20;99.90;;;;;;5012034;28;20065;-78
2022/06/24 10:37:00;;;;;;;6.25;3.58;;;19.20;99.90;;;;;;4995645;28;20049;-78
2022/06/24 10:39:28;;;;;;;4.50;3.13;;;19.30;99.90;;;;;;5012942;28;20091;-78
2022/06/24 10:42:05;;;;;;;5.82;3.38;;;19.40;99.90;;;;;;5012841;28;20077;-78
2022/06/24 10:44:32;;;;;;;5.53;3.08;;;19.40;99.90;;;;;;5011271;28;20508;-79
2022/06/24 10:47:15;;;;;;;6.22;3.53;;;19.50;99.90;;;;;;5011557;28;20061;-79
2022/06/24 10:50:00;;;;;;;6.85;4.00;;;19.60;99.90;;;;;;4994854;28;20046;-79
2022/06/24 10:52:38;;;;;;;7.60;4.53;;;19.70;99.90;;;;;;5012853;28;20041;-79
2022/06/24 10:58:01;;;;;;;5.85;3.88;;;19.90;99.90;;;;;;5011529;28;20147;-79
2022/06/24 11:00:39;;;;;;;8.00;4.72;;;20.10;99.90;;;;;;4995041;28;20420;-78
2022/06/24 11:03:04;;;;;;;7.63;4.40;;;20.20;99.90;;;;;;5011460;28;20135;-78
2022/06/24 11:05:35;;;;;;;7.53;5.35;;;20.30;99.90;;;;;;5011261;28;20161;-78
2022/06/24 11:08:02;;;;;;;7.33;5.60;;;20.40;99.90;;;;;;5011380;28;20042;-78
2022/06/24 11:10:30;;;;;;;8.32;5.68;;;20.50;99.90;;;;;;5012261;28;20046;-78
2022/06/24 11:13:01;;;;;;;9.98;4.50;;;20.60;99.90;;;;;;5011317;28;20133;-79
2022/06/24 11:15:37;;;;;;;7.13;4.93;;;20.60;99.90;;;;;;5012448;28;20041;-78
2022/06/24 11:18:10;;;;;;;6.75;5.03;;;20.60;99.90;;;;;;5012316;28;20112;-78
2022/06/24 11:20:51;;;;;;;5.93;4.40;;;20.80;99.90;;;;;;5018675;28;20046;-78
2022/06/24 11:23:18;;;;;;;8.73;5.33;;;20.80;99.90;;;;;;5020757;28;20042;-79
2022/06/24 11:26:02;;;;;;;9.40;5.80;;;21.00;99.90;;;;;;5015923;28;20041;-78
2022/06/24 11:28:30;;;;;;;6.25;5.65;;;21.10;99.90;;;;;;5011163;28;20041;-78
2022/06/24 11:31:13;;;;;;;6.70;5.15;;;21.20;99.90;;;;;;5010693;28;20050;-79
2022/06/24 11:33:38;;;;;;;6.30;4.90;;;21.20;99.90;;;;;;5011113;28;20129;-78
2022/06/24 11:36:04;;;;;;;6.47;5.20;;;21.20;99.90;;;;;;5010772;28;20125;-77
2022/06/24 11:38:32;;;;;;;8.48;6.00;;;21.30;99.90;;;;;;5011035;28;20042;-77
2022/06/24 11:40:58;;;;;;;7.22;6.10;;;21.30;99.90;;;;;;5009706;28;20520;-77
2022/06/24 11:43:24;;;;;;;9.63;7.43;;;21.30;99.90;;;;;;5010843;28;20041;-78
2022/06/24 11:45:50;;;;;;;7.78;6.97;;;21.40;99.90;;;;;;5010643;28;20050;-77
2022/06/24 11:48:21;;;;;;;9.63;7.30;;;21.50;99.90;;;;;;4994182;28;20470;-79
2022/06/24 11:50:47;;;;;;;10.68;6.40;;;21.60;99.90;;;;;;5010310;28;20046;-79
2022/06/24 11:53:13;;;;;;;10.90;8.10;;;21.70;99.90;;;;;;5010541;28;20391;-78
2022/06/24 11:55:40;;;;;;;10.68;7.18;;;21.80;99.90;;;;;;5010542;28;20456;-78
2022/06/24 11:58:08;;;;;;;8.13;7.32;;;22.00;99.90;;;;;;5010637;28;20101;-78
2022/06/24 12:00:40;;;;;;;11.65;7.65;;;22.30;99.90;;;;;;4993874;28;20054;-78
2022/06/24 12:03:10;;;;;;;9.27;7.65;;;22.40;99.90;;;;;;5010689;28;20193;-78
2022/06/24 12:05:44;;;;;;;8.90;7.75;;;22.60;99.90;;;;;;4993903;28;20069;-78
2022/06/24 12:08:11;;;;;;;9.73;7.22;;;22.70;99.90;;;;;;4993938;28;20050;-80
2022/06/24 12:10:51;;;;;;;9.48;7.03;;;22.70;99.90;;;;;;5010118;28;20096;-80
2022/06/24 12:13:30;;;;;;;10.38;7.95;;;22.80;99.90;;;;;;5010301;28;20046;-79
2022/06/24 12:15:56;;;;;;;11.88;8.02;;;22.90;99.90;;;;;;5011851;28;20049;-80
2022/06/24 12:18:23;;;;;;;11.95;7.70;;;22.90;99.90;;;;;;5011568;28;20463;-80
2022/06/24 12:21:01;;;;;;;14.95;9.10;;;22.90;99.90;;;;;;4994174;28;20041;-79
2022/06/24 12:23:46;;;;;;;10.55;8.13;;;23.10;99.90;;;;;;4994224;28;20615;-79
2022/06/24 12:26:15;;;;;;;9.90;8.90;;;23.20;99.90;;;;;;5012028;28;20080;-81
2022/06/24 12:28:42;;;;;;;10.30;8.25;;;23.30;99.90;;;;;;5011746;28;20466;-80
2022/06/24 12:31:10;;;;;;;12.73;8.60;;;23.50;99.90;;;;;;5010118;28;20053;-79
2022/06/24 12:33:45;;;;;;;9.27;8.05;;;23.50;99.90;;;;;;5010033;28;20052;-79
2022/06/24 12:36:13;;;;;;;12.18;9.82;;;23.60;99.90;;;;;;5010335;28;20046;-79
2022/06/24 12:38:42;;;;;;;8.70;7.63;;;23.70;99.90;;;;;;5012583;28;20041;-81
2022/06/24 12:41:14;;;;;;;9.25;7.75;;;23.80;99.90;;;;;;5012363;28;20092;-81
2022/06/24 12:43:59;;;;;;;9.18;8.27;;;23.80;99.90;;;;;;5012713;28;20105;-80
2022/06/24 12:52:56;;;;;;;10.75;7.88;;;23.90;99.90;;;;;;5013733;28;20085;-80
2022/06/24 12:55:22;;;;;;;11.52;8.20;;;23.80;99.90;;;;;;4965946;28;20045;-81
2022/06/24 12:57:47;;;;;;;9.13;8.13;;;23.80;99.90;;;;;;4999903;28;20053;-81
2022/06/24 13:00:15;;;;;;;9.48;7.47;;;23.70;99.90;;;;;;5016764;28;20064;-81
2022/06/24 13:02:52;;;;;;;11.65;9.18;;;23.70;99.90;;;;;;5015851;28;20081;-81
2022/06/24 13:05:20;;;;;;;12.43;8.68;;;23.80;99.90;;;;;;5015177;28;20050;-81
2022/06/24 13:07:47;;;;;;;10.85;8.82;;;23.80;99.90;;;;;;5015976;28;20120;-81
2022/06/24 13:10:12;;;;;;;12.02;10.27;;;23.80;99.90;;;;;;5013889;28;20049;-79
2022/06/24 13:12:39;;;;;;;14.00;9.20;;;23.70;99.90;;;;;;4997594;28;20061;-79